Terminal Aerodrome Forecast
Issued by NWS

Home | Current Version | Previous Version | Text Only | Print | Product List | Glossary On
Versions: 1 2 3 4 5 6 7 8 9 10 11 12 13 14 15 16 17
320
FTUS45 KTFX 161245 AAA
TAFBZN
TAF AMD
KBZN 161245Z 1613/1718 VRB03KT 1/4SM FZFG VV001
      TEMPO 1613/1614 2SM BR BKN003
     FM161400 VRB04KT P6SM SKC
      TEMPO 1614/1616 3SM BR SCT005
     FM162100 VRB05KT P6SM SCT080 BKN130
     FM170000 15005KT P6SM SCT035 BKN060
     FM170900 VRB03KT P6SM SCT050=

USA.gov is the U.S. government's official web portal to all federal, state and local government web resources and services.